createdAt,value
2023-01-25T00:00:00.899Z,57.46
2023-01-25T00:02:30.693Z,57.51
2023-01-25T00:05:01.148Z,57.92
2023-01-25T00:07:28.168Z,57.71
2023-01-25T00:09:55.558Z,57.62
2023-01-25T00:12:22.654Z,57.34
2023-01-25T00:14:51.274Z,57.65
2023-01-25T00:17:18.215Z,57.29
2023-01-25T00:19:45.640Z,56.84
2023-01-25T00:22:12.453Z,57.80
2023-01-25T00:24:39.709Z,57.56
2023-01-25T00:27:07.930Z,57.85
2023-01-25T00:29:37.234Z,57.58
2023-01-25T00:32:42.755Z,57.62
2023-01-25T00:35:12.427Z,57.36
2023-01-25T00:37:42.209Z,57.48
2023-01-25T00:40:11.817Z,57.53
2023-01-25T00:42:38.773Z,57.50
2023-01-25T00:45:07.462Z,56.93
2023-01-25T00:47:35.929Z,57.34
2023-01-25T00:50:03.411Z,57.10
2023-01-25T00:52:30.305Z,57.00
2023-01-25T00:54:57.526Z,57.14
2023-01-25T00:57:24.473Z,57.17
2023-01-25T00:59:51.721Z,56.95
2023-01-25T01:02:18.762Z,57.21
2023-01-25T01:04:48.651Z,57.04
2023-01-25T01:07:15.822Z,56.99
2023-01-25T01:09:43.101Z,56.88
2023-01-25T01:12:10.322Z,57.14
2023-01-25T01:14:37.973Z,57.32
2023-01-25T01:17:05.024Z,57.21
2023-01-25T01:19:32.362Z,57.63
2023-01-25T01:22:00.810Z,57.25
2023-01-25T01:24:28.306Z,57.76
2023-01-25T01:26:55.331Z,57.45
2023-01-25T01:29:22.698Z,57.26
2023-01-25T01:31:51.328Z,57.24
2023-01-25T01:34:19.024Z,57.55
2023-01-25T01:36:46.101Z,57.37
2023-01-25T01:39:14.778Z,57.39
2023-01-25T01:41:41.704Z,57.23
2023-01-25T01:44:16.580Z,57.01
2023-01-25T01:46:52.846Z,57.21
2023-01-25T01:49:24.136Z,56.92
2023-01-25T01:51:55.859Z,56.93
2023-01-25T01:54:28.989Z,57.41
2023-01-25T01:57:01.351Z,57.05
2023-01-25T01:59:34.534Z,57.21
2023-01-25T02:02:01.774Z,57.30
2023-01-25T02:04:30.130Z,57.33
2023-01-25T02:07:03.142Z,56.83
2023-01-25T02:09:33.962Z,56.93
2023-01-25T02:12:01.305Z,57.07
2023-01-25T02:14:29.944Z,57.43
2023-01-25T02:16:57.608Z,57.10
2023-01-25T02:19:36.857Z,57.10
2023-01-25T02:22:10.164Z,57.06
2023-01-25T02:24:46.650Z,57.40
2023-01-25T02:27:15.245Z,57.25
2023-01-25T02:29:43.121Z,57.15
2023-01-25T02:32:10.126Z,57.31
2023-01-25T02:34:37.666Z,57.84
2023-01-25T02:37:04.691Z,57.15
2023-01-25T02:39:31.943Z,57.52
2023-01-25T02:41:58.910Z,57.13
2023-01-25T02:44:31.334Z,57.51
2023-01-25T02:46:59.771Z,57.24
2023-01-25T02:49:27.009Z,57.56
2023-01-25T02:51:57.335Z,57.71
2023-01-25T02:54:26.237Z,57.53
2023-01-25T02:56:53.352Z,58.08
2023-01-25T02:59:20.838Z,57.41
2023-01-25T03:01:49.816Z,58.00
2023-01-25T03:04:17.054Z,57.96
2023-01-25T03:06:44.024Z,57.54
2023-01-25T03:09:11.986Z,58.09
2023-01-25T03:11:39.024Z,57.72
2023-01-25T03:14:06.627Z,57.51
2023-01-25T03:16:33.930Z,57.47
2023-01-25T03:19:02.467Z,57.95
2023-01-25T03:21:29.577Z,57.49
2023-01-25T03:23:58.800Z,57.66
2023-01-25T03:26:27.110Z,58.02
2023-01-25T03:28:54.379Z,57.65
2023-01-25T03:31:21.572Z,57.99
2023-01-25T03:33:49.848Z,58.16
2023-01-25T03:36:18.519Z,57.58
2023-01-25T03:38:45.793Z,58.17
2023-01-25T03:41:13.956Z,57.92
2023-01-25T03:43:41.137Z,57.53
2023-01-25T03:46:08.312Z,58.07
2023-01-25T03:48:35.523Z,58.12
2023-01-25T03:51:02.563Z,58.27
2023-01-25T03:53:32.128Z,57.79
2023-01-25T03:56:01.303Z,57.91
2023-01-25T03:58:29.756Z,57.30
2023-01-25T04:00:58.727Z,57.10
2023-01-25T04:03:26.703Z,57.10
2023-01-25T04:05:56.107Z,57.85
2023-01-25T04:08:24.697Z,57.56
2023-01-25T04:10:54.794Z,57.38
2023-01-25T04:13:24.048Z,56.97
2023-01-25T04:15:51.679Z,57.08
2023-01-25T04:18:19.454Z,57.10
2023-01-25T04:20:46.419Z,57.26
2023-01-25T04:23:13.685Z,57.42
2023-01-25T04:25:40.649Z,57.49
2023-01-25T04:28:09.206Z,57.03
2023-01-25T04:30:36.190Z,57.52
2023-01-25T04:33:04.653Z,57.58
2023-01-25T04:35:31.925Z,56.95
2023-01-25T04:38:00.126Z,57.09
2023-01-25T04:40:27.452Z,56.86
2023-01-25T04:42:54.743Z,56.78
2023-01-25T04:45:23.073Z,56.65
2023-01-25T04:47:56.645Z,56.18
2023-01-25T04:50:23.694Z,56.63
2023-01-25T04:52:51.293Z,57.11
2023-01-25T04:55:18.389Z,57.03
2023-01-25T04:57:45.956Z,57.01
2023-01-25T05:00:14.422Z,57.21
2023-01-25T05:02:43.005Z,57.06
2023-01-25T05:05:10.463Z,56.97
2023-01-25T05:07:38.156Z,56.76
2023-01-25T05:10:06.640Z,56.44
2023-01-25T05:12:33.952Z,57.02
2023-01-25T05:15:00.886Z,56.50
2023-01-25T05:17:28.323Z,56.85
2023-01-25T05:19:56.630Z,56.88
2023-01-25T05:22:23.991Z,57.55
2023-01-25T05:24:51.149Z,57.45
2023-01-25T05:27:20.379Z,57.89
2023-01-25T05:29:47.755Z,57.56
2023-01-25T05:32:16.602Z,57.86
2023-01-25T05:34:44.706Z,58.18
2023-01-25T05:37:14.979Z,58.18
2023-01-25T05:39:42.003Z,58.00
2023-01-25T05:42:12.062Z,57.57
2023-01-25T05:44:39.120Z,57.70
2023-01-25T05:47:06.583Z,58.53
2023-01-25T05:49:33.465Z,58.91
2023-01-25T05:52:00.815Z,59.03
2023-01-25T05:54:29.479Z,58.86
2023-01-25T05:56:59.705Z,58.14
2023-01-25T05:59:26.626Z,58.59
2023-01-25T06:01:53.983Z,58.60
2023-01-25T06:04:20.891Z,58.09
2023-01-25T06:06:48.151Z,58.07
2023-01-25T06:09:15.532Z,58.32
2023-01-25T06:11:47.604Z,59.04
2023-01-25T06:14:15.234Z,58.59
2023-01-25T06:16:42.476Z,58.35
2023-01-25T06:19:09.588Z,59.96
2023-01-25T06:21:38.571Z,59.05
2023-01-25T06:24:06.413Z,59.67
2023-01-25T06:26:34.479Z,59.51
2023-01-25T06:29:05.090Z,59.05
2023-01-25T06:31:32.436Z,60.85
2023-01-25T06:34:01.101Z,65.32
2023-01-25T06:36:28.474Z,69.15
2023-01-25T06:38:55.411Z,69.42
2023-01-25T06:41:23.185Z,69.95
2023-01-25T06:43:51.374Z,62.74
2023-01-25T06:46:20.296Z,62.52
2023-01-25T06:48:48.506Z,62.50
2023-01-25T06:51:17.257Z,63.52
2023-01-25T06:53:45.884Z,63.72
2023-01-25T06:56:14.828Z,63.68
2023-01-25T06:58:41.823Z,64.31
2023-01-25T07:01:13.446Z,64.38
2023-01-25T07:03:42.206Z,64.80
2023-01-25T07:06:11.117Z,65.85
2023-01-25T07:08:39.731Z,68.16
2023-01-25T07:11:12.196Z,65.01
2023-01-25T07:13:40.201Z,64.91
2023-01-25T07:16:10.948Z,64.49
2023-01-25T07:18:38.118Z,63.41
2023-01-25T07:21:08.957Z,62.80
2023-01-25T07:23:37.967Z,62.85
2023-01-25T07:26:06.147Z,62.19
2023-01-25T07:28:33.774Z,62.09
2023-01-25T07:31:05.900Z,61.26
2023-01-25T07:33:33.035Z,60.84
2023-01-25T07:36:00.622Z,61.15
2023-01-25T07:38:30.428Z,61.71
2023-01-25T07:40:57.793Z,61.81
2023-01-25T07:43:25.309Z,61.05
2023-01-25T07:45:52.538Z,60.38
2023-01-25T07:48:20.938Z,60.71
2023-01-25T07:50:49.702Z,60.53
2023-01-25T07:53:19.408Z,60.10
2023-01-25T07:55:48.768Z,60.84
2023-01-25T07:58:17.849Z,60.10
2023-01-25T08:00:45.485Z,60.17
2023-01-25T08:03:14.526Z,60.74
2023-01-25T08:05:44.558Z,60.65
2023-01-25T08:08:11.582Z,60.05
2023-01-25T08:10:39.000Z,60.29
2023-01-25T08:13:07.691Z,59.97
2023-01-25T08:15:35.132Z,59.86
2023-01-25T08:18:02.121Z,60.83
2023-01-25T08:20:29.397Z,60.79
2023-01-25T08:22:56.569Z,60.90
2023-01-25T08:25:23.862Z,60.91
2023-01-25T08:27:52.224Z,60.15
2023-01-25T08:30:21.073Z,60.35
2023-01-25T08:32:48.044Z,60.12
2023-01-25T08:35:15.508Z,59.77
2023-01-25T08:37:42.419Z,60.29
2023-01-25T08:40:13.810Z,59.63
2023-01-25T08:42:43.132Z,59.42
2023-01-25T08:45:11.288Z,60.21
2023-01-25T08:47:39.897Z,60.03
2023-01-25T08:50:08.522Z,59.03
2023-01-25T08:52:35.750Z,59.72
2023-01-25T08:55:03.159Z,59.16
2023-01-25T08:57:31.942Z,59.34
2023-01-25T08:59:59.863Z,59.01
2023-01-25T09:02:26.746Z,58.94
2023-01-25T09:04:55.332Z,58.88
2023-01-25T09:07:22.329Z,59.11
2023-01-25T09:09:49.547Z,59.53
2023-01-25T09:12:16.520Z,58.63
2023-01-25T09:14:43.890Z,59.03
2023-01-25T09:17:10.791Z,58.51
2023-01-25T09:19:38.077Z,59.03
2023-01-25T09:22:06.460Z,58.90
2023-01-25T09:24:36.997Z,58.98
2023-01-25T09:27:04.192Z,58.97
2023-01-25T09:29:31.536Z,58.03
2023-01-25T09:31:58.801Z,57.97
2023-01-25T09:34:26.471Z,58.40
2023-01-25T09:36:53.499Z,58.54
2023-01-25T09:39:22.359Z,58.42
2023-01-25T09:42:21.577Z,58.00
2023-01-25T09:45:04.801Z,58.34
2023-01-25T09:47:40.475Z,58.27
2023-01-25T09:50:33.233Z,57.94
2023-01-25T09:53:22.354Z,58.01
2023-01-25T09:55:55.575Z,59.35
2023-01-25T09:58:28.337Z,60.34
2023-01-25T10:01:09.669Z,61.02
2023-01-25T10:03:48.336Z,61.85
2023-01-25T10:06:17.665Z,63.19
2023-01-25T10:08:52.920Z,63.04
2023-01-25T10:11:25.977Z,68.13
2023-01-25T10:13:56.337Z,63.72
2023-01-25T10:16:29.996Z,62.48
2023-01-25T10:19:19.907Z,62.08
2023-01-25T10:21:53.762Z,63.05
2023-01-25T10:24:43.739Z,63.35
2023-01-25T10:27:29.389Z,67.03
2023-01-25T10:30:00.136Z,68.68
2023-01-25T10:32:31.900Z,64.31
2023-01-25T10:35:10.518Z,61.39
2023-01-25T10:37:39.061Z,61.98
2023-01-25T10:40:17.747Z,61.38
2023-01-25T10:42:51.566Z,60.93
2023-01-25T10:45:20.941Z,60.42
2023-01-25T10:47:52.705Z,60.13
2023-01-25T10:50:47.638Z,59.69
2023-01-25T10:53:27.101Z,58.52
2023-01-25T10:56:05.737Z,58.12
2023-01-25T10:58:36.593Z,57.91
2023-01-25T11:01:07.119Z,57.80
2023-01-25T11:03:37.228Z,58.47
2023-01-25T11:06:04.969Z,58.06
2023-01-25T11:08:37.597Z,57.78
2023-01-25T11:11:25.553Z,57.66
2023-01-25T11:13:55.368Z,57.33
2023-01-25T11:16:41.648Z,56.58
2023-01-25T11:19:29.261Z,57.20
2023-01-25T11:21:58.622Z,56.27
2023-01-25T11:24:28.102Z,56.10
2023-01-25T11:27:14.586Z,56.38
2023-01-25T11:29:43.188Z,56.21
2023-01-25T11:32:20.412Z,56.16
2023-01-25T11:34:48.923Z,56.68
2023-01-25T11:37:29.228Z,56.16
2023-01-25T11:40:07.939Z,56.85
2023-01-25T11:42:43.594Z,56.18
2023-01-25T11:45:45.719Z,56.09
2023-01-25T11:48:26.909Z,55.36
2023-01-25T11:51:02.464Z,56.27
2023-01-25T11:54:09.494Z,56.30
2023-01-25T11:56:48.615Z,56.01
2023-01-25T11:59:36.391Z,55.28
2023-01-25T12:02:24.849Z,55.62
2023-01-25T12:05:21.911Z,56.04
2023-01-25T12:07:59.073Z,56.40
2023-01-25T12:10:34.304Z,56.69
2023-01-25T12:13:09.589Z,56.38
2023-01-25T12:15:55.837Z,56.28
2023-01-25T12:18:45.329Z,56.25
2023-01-25T12:21:31.191Z,56.38
2023-01-25T12:24:15.312Z,56.46
2023-01-25T12:26:54.484Z,56.83
2023-01-25T12:29:26.587Z,56.64
2023-01-25T12:31:58.591Z,56.75
2023-01-25T12:34:33.814Z,56.94
2023-01-25T12:37:08.278Z,56.98
2023-01-25T12:39:42.560Z,56.77
2023-01-25T12:42:17.563Z,57.37
2023-01-25T12:44:49.441Z,57.01
2023-01-25T12:47:22.391Z,57.41
2023-01-25T12:49:55.820Z,56.96
2023-01-25T12:52:31.882Z,56.76
2023-01-25T12:55:01.901Z,56.78
2023-01-25T12:57:36.515Z,56.51
2023-01-25T13:00:17.096Z,56.18
2023-01-25T13:03:04.749Z,55.95
2023-01-25T13:05:39.451Z,56.29
2023-01-25T13:08:30.318Z,56.40
2023-01-25T13:11:10.259Z,56.49
2023-01-25T13:13:37.224Z,56.81
2023-01-25T13:16:23.916Z,56.92
2023-01-25T13:18:50.943Z,55.98
2023-01-25T13:21:40.809Z,56.00
2023-01-25T13:24:20.588Z,56.33
2023-01-25T13:27:03.675Z,56.73
2023-01-25T13:29:59.007Z,56.41
2023-01-25T13:33:03.653Z,56.43
2023-01-25T13:35:42.059Z,56.86
2023-01-25T13:38:35.866Z,56.56
2023-01-25T13:41:17.864Z,56.53
2023-01-25T13:44:08.141Z,56.65
2023-01-25T13:46:35.745Z,56.45
2023-01-25T13:49:08.138Z,56.75
2023-01-25T13:51:39.407Z,57.13
2023-01-25T13:54:16.022Z,57.39
2023-01-25T13:56:43.246Z,56.70
2023-01-25T13:59:24.399Z,56.75
2023-01-25T14:01:52.553Z,56.89
2023-01-25T14:04:19.885Z,57.06
2023-01-25T14:06:47.114Z,57.10
2023-01-25T14:09:17.651Z,57.50
2023-01-25T14:11:49.471Z,57.60
2023-01-25T14:14:20.949Z,57.07
2023-01-25T14:17:02.059Z,56.94
2023-01-25T14:19:30.577Z,56.99
2023-01-25T14:22:13.236Z,56.81
2023-01-25T14:24:42.090Z,57.11
2023-01-25T14:27:14.478Z,57.19
2023-01-25T14:29:42.110Z,57.38
2023-01-25T14:32:16.993Z,57.21
2023-01-25T14:34:44.406Z,57.57
2023-01-25T14:37:16.629Z,57.24
2023-01-25T14:39:46.563Z,57.78
2023-01-25T14:42:13.775Z,57.92
2023-01-25T14:44:45.732Z,57.61
2023-01-25T14:47:23.044Z,57.81
2023-01-25T14:49:50.581Z,57.69
2023-01-25T14:52:19.976Z,57.55
2023-01-25T14:54:52.409Z,57.76
2023-01-25T14:57:33.049Z,57.63
2023-01-25T15:00:03.809Z,57.99
2023-01-25T15:02:38.065Z,57.73
2023-01-25T15:05:16.392Z,57.92
2023-01-25T15:07:45.993Z,58.00
2023-01-25T15:10:23.267Z,57.92
2023-01-25T15:13:04.132Z,57.72
2023-01-25T15:15:35.813Z,57.54
2023-01-25T15:18:03.208Z,57.94
2023-01-25T15:20:36.110Z,57.71
2023-01-25T15:23:22.023Z,57.93
2023-01-25T15:25:54.957Z,57.96
2023-01-25T15:28:23.524Z,57.94
2023-01-25T15:30:51.088Z,58.00
2023-01-25T15:33:22.035Z,57.79
2023-01-25T15:35:50.248Z,57.64
2023-01-25T15:38:17.656Z,57.84
2023-01-25T15:40:45.541Z,58.12
2023-01-25T15:43:14.652Z,58.23
2023-01-25T15:45:43.509Z,57.82
2023-01-25T15:48:17.296Z,57.96
2023-01-25T15:50:44.752Z,58.27
2023-01-25T15:53:15.184Z,58.41
2023-01-25T15:55:44.587Z,58.46
2023-01-25T15:58:18.355Z,58.59
2023-01-25T16:00:45.599Z,58.57
2023-01-25T16:03:13.101Z,58.41
2023-01-25T16:05:40.474Z,58.22
2023-01-25T16:08:15.611Z,58.30
2023-01-25T16:10:43.014Z,58.14
2023-01-25T16:13:10.304Z,57.96
2023-01-25T16:15:40.022Z,57.68
2023-01-25T16:18:07.136Z,57.95
2023-01-25T16:20:34.206Z,57.91
2023-01-25T16:23:01.429Z,58.10
2023-01-25T16:25:28.721Z,58.26
2023-01-25T16:27:55.587Z,57.99
2023-01-25T16:30:25.892Z,58.12
2023-01-25T16:32:54.260Z,58.05
2023-01-25T16:35:21.519Z,57.96
2023-01-25T16:37:48.717Z,58.01
2023-01-25T16:40:23.158Z,58.39
2023-01-25T16:42:50.671Z,58.16
2023-01-25T16:45:19.456Z,58.20
2023-01-25T16:47:47.654Z,58.01
2023-01-25T16:50:18.067Z,58.20
2023-01-25T16:52:46.036Z,58.01
2023-01-25T16:55:14.335Z,58.45
2023-01-25T16:57:43.489Z,58.46
2023-01-25T17:00:13.917Z,58.59
2023-01-25T17:02:56.968Z,59.79
2023-01-25T17:05:33.553Z,60.85
2023-01-25T17:08:00.689Z,62.65
2023-01-25T17:10:29.726Z,63.39
2023-01-25T17:12:56.776Z,63.62
2023-01-25T17:15:24.019Z,65.55
2023-01-25T17:17:50.877Z,64.03
2023-01-25T17:20:18.189Z,64.90
2023-01-25T17:22:50.987Z,64.63
2023-01-25T17:25:18.433Z,65.11
2023-01-25T17:27:45.403Z,65.29
2023-01-25T17:30:13.629Z,65.37
2023-01-25T17:32:40.994Z,65.61
2023-01-25T17:35:08.980Z,66.81
2023-01-25T17:37:35.980Z,65.59
2023-01-25T17:40:05.201Z,65.08
2023-01-25T17:42:33.000Z,65.08
2023-01-25T17:45:00.225Z,66.44
2023-01-25T17:47:27.224Z,66.67
2023-01-25T17:49:54.524Z,66.26
2023-01-25T17:52:21.389Z,66.02
2023-01-25T17:54:48.972Z,64.38
2023-01-25T17:57:23.702Z,64.89
2023-01-25T17:59:51.069Z,64.52
2023-01-25T18:02:18.258Z,64.05
2023-01-25T18:04:45.521Z,63.52
2023-01-25T18:07:13.428Z,63.11
2023-01-25T18:09:43.393Z,63.15
2023-01-25T18:12:12.061Z,63.06
2023-01-25T18:14:43.958Z,62.52
2023-01-25T18:17:12.526Z,62.06
2023-01-25T18:19:39.737Z,62.59
2023-01-25T18:22:06.736Z,62.40
2023-01-25T18:24:35.413Z,61.72
2023-01-25T18:27:05.468Z,61.88
2023-01-25T18:29:55.518Z,61.58
2023-01-25T18:32:22.620Z,61.63
2023-01-25T18:34:49.995Z,61.75
2023-01-25T18:37:25.614Z,61.38
2023-01-25T18:39:54.656Z,61.39
2023-01-25T18:42:23.643Z,61.29
2023-01-25T18:44:50.989Z,61.23
2023-01-25T18:47:21.137Z,61.20
2023-01-25T18:49:50.490Z,61.47
2023-01-25T18:52:18.690Z,61.30
2023-01-25T18:54:46.296Z,60.87
2023-01-25T18:57:13.933Z,60.82
2023-01-25T18:59:42.084Z,60.54
2023-01-25T19:02:11.084Z,60.78
2023-01-25T19:04:40.362Z,60.63
2023-01-25T19:07:07.518Z,60.16
2023-01-25T19:09:34.946Z,59.87
2023-01-25T19:12:02.048Z,59.90
2023-01-25T19:14:30.490Z,60.24
2023-01-25T19:16:57.788Z,59.58
2023-01-25T19:19:25.098Z,59.30
2023-01-25T19:21:53.385Z,58.34
2023-01-25T19:24:21.807Z,58.14
2023-01-25T19:26:48.743Z,58.58
2023-01-25T19:29:16.171Z,58.41
2023-01-25T19:31:43.172Z,62.63
2023-01-25T19:34:10.423Z,59.17
2023-01-25T19:36:43.737Z,58.25
2023-01-25T19:39:14.495Z,58.54
2023-01-25T19:41:43.993Z,58.67
2023-01-25T19:44:13.800Z,58.10
2023-01-25T19:46:41.005Z,58.18
2023-01-25T19:49:10.701Z,57.88
2023-01-25T19:51:41.355Z,57.83
2023-01-25T19:54:11.391Z,57.48
2023-01-25T19:56:40.973Z,57.64
2023-01-25T19:59:11.576Z,57.74
2023-01-25T20:01:44.119Z,57.49
2023-01-25T20:04:13.721Z,57.06
2023-01-25T20:06:40.862Z,56.78
2023-01-25T20:09:08.561Z,57.00
2023-01-25T20:11:35.838Z,56.46
2023-01-25T20:14:06.185Z,56.55
2023-01-25T20:16:34.859Z,56.15
2023-01-25T20:19:02.944Z,55.52
2023-01-25T20:21:31.395Z,55.30
2023-01-25T20:24:02.623Z,55.27
2023-01-25T20:26:32.626Z,55.54
2023-01-25T20:29:00.605Z,55.56
2023-01-25T20:31:30.932Z,55.38
2023-01-25T20:33:59.598Z,55.15
2023-01-25T20:36:30.321Z,54.91
2023-01-25T20:38:57.872Z,55.14
2023-01-25T20:41:25.045Z,55.16
2023-01-25T20:43:54.783Z,54.89
2023-01-25T20:46:22.066Z,54.35
2023-01-25T20:48:52.088Z,54.70
2023-01-25T20:51:21.470Z,55.21
2023-01-25T20:53:50.246Z,54.91
2023-01-25T20:56:18.638Z,55.04
2023-01-25T20:58:50.381Z,54.85
2023-01-25T21:01:20.106Z,55.21
2023-01-25T21:03:48.347Z,54.81
2023-01-25T21:06:17.624Z,54.76
2023-01-25T21:08:44.870Z,54.80
2023-01-25T21:11:13.376Z,55.59
2023-01-25T21:13:41.209Z,55.31
2023-01-25T21:16:12.366Z,55.71
2023-01-25T21:18:41.139Z,55.85
2023-01-25T21:21:10.082Z,55.83
2023-01-25T21:23:39.746Z,56.06
2023-01-25T21:26:08.070Z,55.79
2023-01-25T21:28:35.310Z,55.59
2023-01-25T21:31:07.547Z,55.69
2023-01-25T21:33:35.391Z,55.23
2023-01-25T21:36:02.522Z,54.90
2023-01-25T21:38:29.843Z,55.83
2023-01-25T21:41:02.071Z,56.01
2023-01-25T21:43:29.615Z,56.16
2023-01-25T21:46:13.481Z,56.28
2023-01-25T21:48:59.234Z,55.68
2023-01-25T21:51:40.125Z,55.56
2023-01-25T21:54:07.567Z,55.58
2023-01-25T21:56:35.919Z,55.97
2023-01-25T21:59:03.332Z,55.76
2023-01-25T22:01:30.324Z,55.53
2023-01-25T22:03:57.692Z,54.96
2023-01-25T22:06:24.659Z,55.03
2023-01-25T22:08:52.443Z,55.30
2023-01-25T22:11:19.520Z,55.13
2023-01-25T22:13:48.087Z,54.87
2023-01-25T22:16:15.199Z,54.52
2023-01-25T22:18:43.503Z,54.86
2023-01-25T22:21:15.528Z,55.47
2023-01-25T22:23:42.873Z,55.49
2023-01-25T22:26:11.265Z,54.87
2023-01-25T22:28:45.953Z,55.23
2023-01-25T22:31:15.230Z,54.91
2023-01-25T22:33:45.520Z,55.14
2023-01-25T22:36:14.291Z,55.04
2023-01-25T22:38:41.822Z,55.15
2023-01-25T22:41:09.962Z,54.83
2023-01-25T22:43:37.870Z,54.51
2023-01-25T22:46:06.212Z,54.70
2023-01-25T22:48:35.220Z,54.46
2023-01-25T22:51:02.965Z,53.92
2023-01-25T22:53:30.874Z,54.57
2023-01-25T22:56:02.823Z,54.58
2023-01-25T22:58:30.385Z,54.28
2023-01-25T23:00:57.528Z,54.93
2023-01-25T23:03:24.982Z,54.55
2023-01-25T23:06:00.265Z,55.15
2023-01-25T23:08:30.117Z,54.97
2023-01-25T23:11:00.940Z,55.29
2023-01-25T23:13:28.748Z,55.04
2023-01-25T23:15:56.319Z,54.59
2023-01-25T23:18:42.171Z,54.56
2023-01-25T23:21:10.463Z,55.03
2023-01-25T23:23:37.657Z,54.95
2023-01-25T23:26:04.849Z,55.55
2023-01-25T23:28:32.361Z,54.95
2023-01-25T23:31:21.437Z,54.72
2023-01-25T23:33:50.677Z,55.84
2023-01-25T23:36:20.382Z,56.05
2023-01-25T23:38:48.827Z,55.61
2023-01-25T23:41:16.871Z,56.44
2023-01-25T23:43:44.279Z,56.46
2023-01-25T23:46:14.256Z,56.34
2023-01-25T23:48:42.062Z,56.30
2023-01-25T23:51:11.021Z,56.25
2023-01-25T23:53:39.821Z,56.92
2023-01-25T23:56:08.736Z,56.71
2023-01-25T23:58:36.904Z,56.78
